sensor_id;sensor_type;location;lat;lon;timestamp;temperature;humidity
21744;DHT22;11034;48.556;9.342;2022-11-15T00:01:09;10.50;99.90
21744;DHT22;11034;48.556;9.342;2022-11-15T00:03:37;10.50;99.90
21744;DHT22;11034;48.556;9.342;2022-11-15T00:06:05;10.70;99.90
21744;DHT22;11034;48.556;9.342;2022-11-15T00:08:33;10.80;99.90
21744;DHT22;11034;48.556;9.342;2022-11-15T00:11:02;10.80;99.90
21744;DHT22;11034;48.556;9.342;2022-11-15T00:13:30;10.70;99.90
21744;DHT22;11034;48.556;9.342;2022-11-15T00:16:01;10.80;99.90
21744;DHT22;11034;48.556;9.342;2022-11-15T00:18:30;10.70;99.90
21744;DHT22;11034;48.556;9.342;2022-11-15T00:21:04;10.60;99.90
21744;DHT22;11034;48.556;9.342;2022-11-15T00:23:33;10.60;99.90
21744;DHT22;11034;48.556;9.342;2022-11-15T00:26:01;10.60;99.90
21744;DHT22;11034;48.556;9.342;2022-11-15T00:28:30;10.60;99.90
21744;DHT22;11034;48.556;9.342;2022-11-15T00:31:02;10.60;99.90
21744;DHT22;11034;48.556;9.342;2022-11-15T00:33:31;10.60;99.90
21744;DHT22;11034;48.556;9.342;2022-11-15T00:36:01;10.70;99.90
21744;DHT22;11034;48.556;9.342;2022-11-15T00:38:31;10.70;99.90
21744;DHT22;11034;48.556;9.342;2022-11-15T00:41:01;10.70;99.90
21744;DHT22;11034;48.556;9.342;2022-11-15T00:43:35;10.60;99.90
21744;DHT22;11034;48.556;9.342;2022-11-15T00:46:05;10.60;99.90
21744;DHT22;11034;48.556;9.342;2022-11-15T00:48:34;10.50;99.90
21744;DHT22;11034;48.556;9.342;2022-11-15T00:51:02;10.50;99.90
21744;DHT22;11034;48.556;9.342;2022-11-15T00:53:30;10.50;99.90
21744;DHT22;11034;48.556;9.342;2022-11-15T00:55:59;10.40;99.90
21744;DHT22;11034;48.556;9.342;2022-11-15T00:58:27;10.30;99.90
21744;DHT22;11034;48.556;9.342;2022-11-15T01:00:55;10.30;99.90
21744;DHT22;11034;48.556;9.342;2022-11-15T01:03:24;10.30;99.90
21744;DHT22;11034;48.556;9.342;2022-11-15T01:05:52;10.30;99.90
21744;DHT22;11034;48.556;9.342;2022-11-15T01:08:20;10.30;99.90
21744;DHT22;11034;48.556;9.342;2022-11-15T01:10:48;10.20;99.90
21744;DHT22;11034;48.556;9.342;2022-11-15T01:13:16;10.10;99.90
21744;DHT22;11034;48.556;9.342;2022-11-15T01:15:44;10.10;99.90
21744;DHT22;11034;48.556;9.342;2022-11-15T01:18:12;10.10;99.90
21744;DHT22;11034;48.556;9.342;2022-11-15T01:20:42;10.30;99.90
21744;DHT22;11034;48.556;9.342;2022-11-15T01:23:10;10.30;99.90
21744;DHT22;11034;48.556;9.342;2022-11-15T01:25:38;10.30;99.90
21744;DHT22;11034;48.556;9.342;2022-11-15T01:28:06;10.30;99.90
21744;DHT22;11034;48.556;9.342;2022-11-15T01:30:36;10.30;99.90
21744;DHT22;11034;48.556;9.342;2022-11-15T01:33:04;10.20;99.90
21744;DHT22;11034;48.556;9.342;2022-11-15T01:35:32;10.10;99.90
21744;DHT22;11034;48.556;9.342;2022-11-15T01:38:01;9.90;99.90
21744;DHT22;11034;48.556;9.342;2022-11-15T01:40:29;9.80;99.90
21744;DHT22;11034;48.556;9.342;2022-11-15T01:42:57;9.60;99.90
21744;DHT22;11034;48.556;9.342;2022-11-15T01:45:25;9.60;99.90
21744;DHT22;11034;48.556;9.342;2022-11-15T01:47:54;9.60;99.90
21744;DHT22;11034;48.556;9.342;2022-11-15T01:50:26;9.50;99.90
21744;DHT22;11034;48.556;9.342;2022-11-15T01:52:55;9.40;99.90
21744;DHT22;11034;48.556;9.342;2022-11-15T01:55:26;9.40;99.90
21744;DHT22;11034;48.556;9.342;2022-11-15T01:57:58;9.30;99.90
21744;DHT22;11034;48.556;9.342;2022-11-15T02:00:27;9.30;99.90
21744;DHT22;11034;48.556;9.342;2022-11-15T02:02:56;9.20;99.90
21744;DHT22;11034;48.556;9.342;2022-11-15T02:05:24;9.20;99.90
21744;DHT22;11034;48.556;9.342;2022-11-15T02:07:53;9.10;99.90
21744;DHT22;11034;48.556;9.342;2022-11-15T02:10:23;9.00;99.90
21744;DHT22;11034;48.556;9.342;2022-11-15T02:12:52;9.00;99.90
21744;DHT22;11034;48.556;9.342;2022-11-15T02:15:21;9.10;99.90
21744;DHT22;11034;48.556;9.342;2022-11-15T02:18:10;9.10;99.90
21744;DHT22;11034;48.556;9.342;2022-11-15T02:20:51;9.10;99.90
21744;DHT22;11034;48.556;9.342;2022-11-15T02:23:47;9.00;99.90
21744;DHT22;11034;48.556;9.342;2022-11-15T02:29:35;9.10;99.90
21744;DHT22;11034;48.556;9.342;2022-11-15T02:32:11;9.20;99.90
21744;DHT22;11034;48.556;9.342;2022-11-15T02:34:48;9.40;99.90
21744;DHT22;11034;48.556;9.342;2022-11-15T02:37:24;9.60;99.90
21744;DHT22;11034;48.556;9.342;2022-11-15T02:40:00;9.70;99.90
21744;DHT22;11034;48.556;9.342;2022-11-15T02:42:33;9.70;99.90
21744;DHT22;11034;48.556;9.342;2022-11-15T02:45:24;9.90;99.90
21744;DHT22;11034;48.556;9.342;2022-11-15T02:47:57;10.00;99.90
21744;DHT22;11034;48.556;9.342;2022-11-15T02:50:29;10.00;99.90
21744;DHT22;11034;48.556;9.342;2022-11-15T02:52:57;10.00;99.90
21744;DHT22;11034;48.556;9.342;2022-11-15T02:55:27;10.10;99.90
21744;DHT22;11034;48.556;9.342;2022-11-15T02:58:09;10.20;99.90
21744;DHT22;11034;48.556;9.342;2022-11-15T03:00:47;10.30;99.90
21744;DHT22;11034;48.556;9.342;2022-11-15T03:03:48;10.30;99.90
21744;DHT22;11034;48.556;9.342;2022-11-15T03:06:26;10.30;99.90
21744;DHT22;11034;48.556;9.342;2022-11-15T03:09:03;10.40;99.90
21744;DHT22;11034;48.556;9.342;2022-11-15T03:11:36;10.30;99.90
21744;DHT22;11034;48.556;9.342;2022-11-15T03:14:12;10.20;99.90
21744;DHT22;11034;48.556;9.342;2022-11-15T03:16:49;10.10;99.90
21744;DHT22;11034;48.556;9.342;2022-11-15T03:19:26;10.10;99.90
21744;DHT22;11034;48.556;9.342;2022-11-15T03:21:58;10.00;99.90
21744;DHT22;11034;48.556;9.342;2022-11-15T03:24:29;10.00;99.90
21744;DHT22;11034;48.556;9.342;2022-11-15T03:26:59;10.00;99.90
21744;DHT22;11034;48.556;9.342;2022-11-15T03:29:32;9.90;99.90
21744;DHT22;11034;48.556;9.342;2022-11-15T03:32:05;9.70;99.90
21744;DHT22;11034;48.556;9.342;2022-11-15T03:34:40;9.50;99.90
21744;DHT22;11034;48.556;9.342;2022-11-15T03:37:10;9.50;99.90
21744;DHT22;11034;48.556;9.342;2022-11-15T03:39:39;9.60;99.90
21744;DHT22;11034;48.556;9.342;2022-11-15T03:42:18;9.50;99.90
21744;DHT22;11034;48.556;9.342;2022-11-15T03:44:52;9.60;99.90
21744;DHT22;11034;48.556;9.342;2022-11-15T03:47:24;9.50;99.90
21744;DHT22;11034;48.556;9.342;2022-11-15T03:49:58;9.60;99.90
21744;DHT22;11034;48.556;9.342;2022-11-15T03:52:31;9.60;99.90
21744;DHT22;11034;48.556;9.342;2022-11-15T03:55:01;9.60;99.90
21744;DHT22;11034;48.556;9.342;2022-11-15T03:57:29;9.60;99.90
21744;DHT22;11034;48.556;9.342;2022-11-15T03:59:57;9.60;99.90
21744;DHT22;11034;48.556;9.342;2022-11-15T04:02:25;9.50;99.90
21744;DHT22;11034;48.556;9.342;2022-11-15T04:04:54;9.40;99.90
21744;DHT22;11034;48.556;9.342;2022-11-15T04:07:22;9.50;99.90
21744;DHT22;11034;48.556;9.342;2022-11-15T04:09:50;9.40;99.90
21744;DHT22;11034;48.556;9.342;2022-11-15T04:12:31;9.30;99.90
21744;DHT22;11034;48.556;9.342;2022-11-15T04:15:00;9.20;99.90
21744;DHT22;11034;48.556;9.342;2022-11-15T04:17:39;9.10;99.90
21744;DHT22;11034;48.556;9.342;2022-11-15T04:20:11;9.00;99.90
21744;DHT22;11034;48.556;9.342;2022-11-15T04:22:58;8.90;99.90
21744;DHT22;11034;48.556;9.342;2022-11-15T04:25:44;8.80;99.90
21744;DHT22;11034;48.556;9.342;2022-11-15T04:28:13;8.70;99.90
21744;DHT22;11034;48.556;9.342;2022-11-15T04:30:41;8.70;99.90
21744;DHT22;11034;48.556;9.342;2022-11-15T04:33:09;8.60;99.90
21744;DHT22;11034;48.556;9.342;2022-11-15T04:35:38;8.60;99.90
21744;DHT22;11034;48.556;9.342;2022-11-15T04:38:07;8.50;99.90
21744;DHT22;11034;48.556;9.342;2022-11-15T04:40:35;8.40;99.90
21744;DHT22;11034;48.556;9.342;2022-11-15T04:43:03;8.30;99.90
21744;DHT22;11034;48.556;9.342;2022-11-15T04:45:31;8.30;99.90
21744;DHT22;11034;48.556;9.342;2022-11-15T04:47:59;8.30;99.90
21744;DHT22;11034;48.556;9.342;2022-11-15T04:50:27;8.40;99.90
21744;DHT22;11034;48.556;9.342;2022-11-15T04:52:56;8.30;99.90
21744;DHT22;11034;48.556;9.342;2022-11-15T04:55:24;8.30;99.90
21744;DHT22;11034;48.556;9.342;2022-11-15T04:57:58;8.30;99.90
21744;DHT22;11034;48.556;9.342;2022-11-15T05:00:28;8.30;99.90
21744;DHT22;11034;48.556;9.342;2022-11-15T05:02:57;8.30;99.90
21744;DHT22;11034;48.556;9.342;2022-11-15T05:05:42;8.30;99.90
21744;DHT22;11034;48.556;9.342;2022-11-15T05:08:11;8.30;99.90
21744;DHT22;11034;48.556;9.342;2022-11-15T05:10:39;8.40;99.90
21744;DHT22;11034;48.556;9.342;2022-11-15T05:13:07;8.40;99.90
21744;DHT22;11034;48.556;9.342;2022-11-15T05:15:35;8.40;99.90
21744;DHT22;11034;48.556;9.342;2022-11-15T05:18:03;8.50;99.90
21744;DHT22;11034;48.556;9.342;2022-11-15T05:20:31;8.50;99.90
21744;DHT22;11034;48.556;9.342;2022-11-15T05:22:59;8.60;99.90
21744;DHT22;11034;48.556;9.342;2022-11-15T05:25:29;8.50;99.90
21744;DHT22;11034;48.556;9.342;2022-11-15T05:27:57;8.60;99.90
21744;DHT22;11034;48.556;9.342;2022-11-15T05:30:25;8.60;99.90
21744;DHT22;11034;48.556;9.342;2022-11-15T05:32:53;8.70;99.90
21744;DHT22;11034;48.556;9.342;2022-11-15T05:35:30;8.70;99.90
21744;DHT22;11034;48.556;9.342;2022-11-15T05:37:59;8.60;99.90
21744;DHT22;11034;48.556;9.342;2022-11-15T05:40:28;8.60;99.90
21744;DHT22;11034;48.556;9.342;2022-11-15T05:42:57;8.50;99.90
21744;DHT22;11034;48.556;9.342;2022-11-15T05:45:28;8.70;99.90
21744;DHT22;11034;48.556;9.342;2022-11-15T05:47:57;8.80;99.90
21744;DHT22;11034;48.556;9.342;2022-11-15T05:50:27;9.00;99.90
21744;DHT22;11034;48.556;9.342;2022-11-15T05:52:55;9.10;99.90
21744;DHT22;11034;48.556;9.342;2022-11-15T05:55:32;9.10;99.90
21744;DHT22;11034;48.556;9.342;2022-11-15T05:58:00;9.30;99.90
21744;DHT22;11034;48.556;9.342;2022-11-15T06:00:28;9.50;99.90
21744;DHT22;11034;48.556;9.342;2022-11-15T06:02:56;9.70;99.90
21744;DHT22;11034;48.556;9.342;2022-11-15T06:05:24;9.70;99.90
21744;DHT22;11034;48.556;9.342;2022-11-15T06:07:52;9.70;99.90
21744;DHT22;11034;48.556;9.342;2022-11-15T06:10:21;9.70;99.90
21744;DHT22;11034;48.556;9.342;2022-11-15T06:12:57;9.80;99.90
21744;DHT22;11034;48.556;9.342;2022-11-15T06:15:25;9.70;99.90
21744;DHT22;11034;48.556;9.342;2022-11-15T06:17:56;9.60;99.90
21744;DHT22;11034;48.556;9.342;2022-11-15T06:20:25;9.60;99.90
21744;DHT22;11034;48.556;9.342;2022-11-15T06:22:57;9.60;99.90
21744;DHT22;11034;48.556;9.342;2022-11-15T06:25:25;9.60;99.90
21744;DHT22;11034;48.556;9.342;2022-11-15T06:27:55;9.70;99.90
21744;DHT22;11034;48.556;9.342;2022-11-15T06:30:25;9.70;99.90
21744;DHT22;11034;48.556;9.342;2022-11-15T06:32:59;9.60;99.90
21744;DHT22;11034;48.556;9.342;2022-11-15T06:35:28;9.50;99.90
21744;DHT22;11034;48.556;9.342;2022-11-15T06:38:02;9.50;99.90
21744;DHT22;11034;48.556;9.342;2022-11-15T06:40:30;9.40;99.90
21744;DHT22;11034;48.556;9.342;2022-11-15T06:42:58;9.50;99.90
21744;DHT22;11034;48.556;9.342;2022-11-15T06:45:28;9.50;99.90
21744;DHT22;11034;48.556;9.342;2022-11-15T06:47:56;9.70;99.90
21744;DHT22;11034;48.556;9.342;2022-11-15T06:50:24;9.80;99.90
21744;DHT22;11034;48.556;9.342;2022-11-15T06:52:52;9.90;99.90
21744;DHT22;11034;48.556;9.342;2022-11-15T06:55:21;10.10;99.90
21744;DHT22;11034;48.556;9.342;2022-11-15T06:57:50;10.20;99.90
21744;DHT22;11034;48.556;9.342;2022-11-15T07:00:19;10.30;99.90
21744;DHT22;11034;48.556;9.342;2022-11-15T07:02:49;10.30;99.90
21744;DHT22;11034;48.556;9.342;2022-11-15T07:05:17;10.30;99.90
21744;DHT22;11034;48.556;9.342;2022-11-15T07:07:51;10.30;99.90
21744;DHT22;11034;48.556;9.342;2022-11-15T07:10:19;10.40;99.90
21744;DHT22;11034;48.556;9.342;2022-11-15T07:12:48;10.50;99.90
21744;DHT22;11034;48.556;9.342;2022-11-15T07:15:16;10.60;99.90
21744;DHT22;11034;48.556;9.342;2022-11-15T07:17:44;10.70;99.90
21744;DHT22;11034;48.556;9.342;2022-11-15T07:20:14;10.70;99.90
21744;DHT22;11034;48.556;9.342;2022-11-15T07:22:43;10.80;99.90
21744;DHT22;11034;48.556;9.342;2022-11-15T07:25:11;10.90;99.90
21744;DHT22;11034;48.556;9.342;2022-11-15T07:27:39;11.10;99.90
21744;DHT22;11034;48.556;9.342;2022-11-15T07:30:08;11.20;99.90
21744;DHT22;11034;48.556;9.342;2022-11-15T07:32:37;11.40;99.90
21744;DHT22;11034;48.556;9.342;2022-11-15T07:35:05;11.40;99.90
21744;DHT22;11034;48.556;9.342;2022-11-15T07:37:34;11.40;99.90
21744;DHT22;11034;48.556;9.342;2022-11-15T07:40:02;11.40;99.90
21744;DHT22;11034;48.556;9.342;2022-11-15T07:42:31;11.30;99.90
21744;DHT22;11034;48.556;9.342;2022-11-15T07:45:16;11.40;99.90
21744;DHT22;11034;48.556;9.342;2022-11-15T07:47:45;11.30;99.90
21744;DHT22;11034;48.556;9.342;2022-11-15T07:50:13;11.10;99.90
21744;DHT22;11034;48.556;9.342;2022-11-15T07:52:43;10.90;99.90
21744;DHT22;11034;48.556;9.342;2022-11-15T07:55:11;10.80;99.90
21744;DHT22;11034;48.556;9.342;2022-11-15T07:57:39;10.60;99.90
21744;DHT22;11034;48.556;9.342;2022-11-15T08:00:08;10.60;99.90
21744;DHT22;11034;48.556;9.342;2022-11-15T08:02:36;10.60;99.90
21744;DHT22;11034;48.556;9.342;2022-11-15T08:05:05;10.80;99.90
21744;DHT22;11034;48.556;9.342;2022-11-15T08:07:33;11.10;99.90
21744;DHT22;11034;48.556;9.342;2022-11-15T08:10:03;11.40;99.90
21744;DHT22;11034;48.556;9.342;2022-11-15T08:12:32;11.80;99.90
21744;DHT22;11034;48.556;9.342;2022-11-15T08:15:00;12.00;99.90
21744;DHT22;11034;48.556;9.342;2022-11-15T08:17:28;12.10;99.90
21744;DHT22;11034;48.556;9.342;2022-11-15T08:19:59;12.20;99.90
21744;DHT22;11034;48.556;9.342;2022-11-15T08:22:27;12.20;99.90
21744;DHT22;11034;48.556;9.342;2022-11-15T08:24:55;12.10;99.90
21744;DHT22;11034;48.556;9.342;2022-11-15T08:27:24;12.00;99.90
21744;DHT22;11034;48.556;9.342;2022-11-15T08:29:52;11.90;99.90
21744;DHT22;11034;48.556;9.342;2022-11-15T08:32:25;11.70;99.90
21744;DHT22;11034;48.556;9.342;2022-11-15T08:34:53;11.60;99.90
21744;DHT22;11034;48.556;9.342;2022-11-15T08:37:21;11.60;99.90
21744;DHT22;11034;48.556;9.342;2022-11-15T08:39:49;11.50;99.90
21744;DHT22;11034;48.556;9.342;2022-11-15T08:42:17;11.40;99.90
21744;DHT22;11034;48.556;9.342;2022-11-15T08:44:47;11.40;99.90
21744;DHT22;11034;48.556;9.342;2022-11-15T08:47:15;11.30;99.90
21744;DHT22;11034;48.556;9.342;2022-11-15T08:49:43;11.30;99.90
21744;DHT22;11034;48.556;9.342;2022-11-15T08:52:11;11.30;99.90
21744;DHT22;11034;48.556;9.342;2022-11-15T08:54:39;11.20;99.90
21744;DHT22;11034;48.556;9.342;2022-11-15T08:57:07;11.30;99.90
21744;DHT22;11034;48.556;9.342;2022-11-15T08:59:36;11.40;99.90
21744;DHT22;11034;48.556;9.342;2022-11-15T09:02:06;11.40;99.90
21744;DHT22;11034;48.556;9.342;2022-11-15T09:04:34;11.40;99.90
21744;DHT22;11034;48.556;9.342;2022-11-15T09:07:02;11.40;99.90
21744;DHT22;11034;48.556;9.342;2022-11-15T09:09:30;11.40;99.90
21744;DHT22;11034;48.556;9.342;2022-11-15T09:11:58;11.60;99.90
21744;DHT22;11034;48.556;9.342;2022-11-15T09:14:46;11.70;99.90
21744;DHT22;11034;48.556;9.342;2022-11-15T09:17:15;11.80;99.90
21744;DHT22;11034;48.556;9.342;2022-11-15T09:20:04;11.90;99.90
21744;DHT22;11034;48.556;9.342;2022-11-15T09:22:32;12.00;99.90
21744;DHT22;11034;48.556;9.342;2022-11-15T09:25:00;12.00;99.90
21744;DHT22;11034;48.556;9.342;2022-11-15T09:27:31;12.10;99.90
21744;DHT22;11034;48.556;9.342;2022-11-15T09:29:59;12.10;99.90
21744;DHT22;11034;48.556;9.342;2022-11-15T09:32:29;12.30;99.90
21744;DHT22;11034;48.556;9.342;2022-11-15T09:35:05;12.30;99.90
21744;DHT22;11034;48.556;9.342;2022-11-15T09:37:33;12.40;99.90
21744;DHT22;11034;48.556;9.342;2022-11-15T09:40:01;12.50;99.90
21744;DHT22;11034;48.556;9.342;2022-11-15T09:42:45;12.60;99.90
21744;DHT22;11034;48.556;9.342;2022-11-15T09:45:20;12.80;99.90
21744;DHT22;11034;48.556;9.342;2022-11-15T09:48:03;12.90;99.90
21744;DHT22;11034;48.556;9.342;2022-11-15T09:50:38;12.90;99.90
21744;DHT22;11034;48.556;9.342;2022-11-15T09:53:12;13.00;99.90
21744;DHT22;11034;48.556;9.342;2022-11-15T09:55:58;13.10;99.90
21744;DHT22;11034;48.556;9.342;2022-11-15T09:58:35;13.20;99.90
21744;DHT22;11034;48.556;9.342;2022-11-15T10:01:08;13.10;99.90
21744;DHT22;11034;48.556;9.342;2022-11-15T10:03:41;13.20;99.90
21744;DHT22;11034;48.556;9.342;2022-11-15T10:06:17;13.10;99.90
21744;DHT22;11034;48.556;9.342;2022-11-15T10:08:57;13.00;99.90
21744;DHT22;11034;48.556;9.342;2022-11-15T10:11:28;13.10;99.90
21744;DHT22;11034;48.556;9.342;2022-11-15T10:14:11;13.10;99.90
21744;DHT22;11034;48.556;9.342;2022-11-15T10:17:07;13.20;99.90
21744;DHT22;11034;48.556;9.342;2022-11-15T10:19:47;13.40;99.90
21744;DHT22;11034;48.556;9.342;2022-11-15T10:22:26;13.60;99.90
21744;DHT22;11034;48.556;9.342;2022-11-15T10:25:10;13.80;99.90
21744;DHT22;11034;48.556;9.342;2022-11-15T10:27:40;13.90;99.90
21744;DHT22;11034;48.556;9.342;2022-11-15T10:30:12;13.80;99.90
21744;DHT22;11034;48.556;9.342;2022-11-15T10:32:42;13.90;99.90
21744;DHT22;11034;48.556;9.342;2022-11-15T10:35:22;13.80;99.90
21744;DHT22;11034;48.556;9.342;2022-11-15T10:38:04;13.80;99.90
21744;DHT22;11034;48.556;9.342;2022-11-15T10:40:34;13.90;99.90
21744;DHT22;11034;48.556;9.342;2022-11-15T10:43:13;13.90;99.90
21744;DHT22;11034;48.556;9.342;2022-11-15T10:45:42;13.90;99.90
21744;DHT22;11034;48.556;9.342;2022-11-15T10:48:25;13.70;99.90
21744;DHT22;11034;48.556;9.342;2022-11-15T10:50:55;13.80;99.90
21744;DHT22;11034;48.556;9.342;2022-11-15T10:53:29;13.80;99.90
21744;DHT22;11034;48.556;9.342;2022-11-15T10:56:01;13.80;99.90
21744;DHT22;11034;48.556;9.342;2022-11-15T10:58:35;13.80;99.90
21744;DHT22;11034;48.556;9.342;2022-11-15T11:01:12;13.80;99.90
21744;DHT22;11034;48.556;9.342;2022-11-15T11:03:42;13.90;99.90
21744;DHT22;11034;48.556;9.342;2022-11-15T11:06:14;13.90;99.90
21744;DHT22;11034;48.556;9.342;2022-11-15T11:08:54;13.90;99.90
21744;DHT22;11034;48.556;9.342;2022-11-15T11:11:22;13.80;99.90
21744;DHT22;11034;48.556;9.342;2022-11-15T11:13:51;13.70;99.90
21744;DHT22;11034;48.556;9.342;2022-11-15T11:16:43;13.80;99.90
21744;DHT22;11034;48.556;9.342;2022-11-15T11:19:35;13.80;99.90
21744;DHT22;11034;48.556;9.342;2022-11-15T11:22:25;13.80;99.90
21744;DHT22;11034;48.556;9.342;2022-11-15T11:25:04;13.70;99.90
21744;DHT22;11034;48.556;9.342;2022-11-15T11:27:43;13.80;99.90
21744;DHT22;11034;48.556;9.342;2022-11-15T11:30:16;13.80;99.90
21744;DHT22;11034;48.556;9.342;2022-11-15T11:33:08;13.80;99.90
21744;DHT22;11034;48.556;9.342;2022-11-15T11:35:46;13.70;99.90
21744;DHT22;11034;48.556;9.342;2022-11-15T11:38:45;13.70;99.90
21744;DHT22;11034;48.556;9.342;2022-11-15T11:41:21;13.70;99.90
21744;DHT22;11034;48.556;9.342;2022-11-15T11:43:59;13.80;99.90
21744;DHT22;11034;48.556;9.342;2022-11-15T11:46:48;13.90;99.90
21744;DHT22;11034;48.556;9.342;2022-11-15T11:49:20;13.90;99.90
21744;DHT22;11034;48.556;9.342;2022-11-15T11:51:54;14.00;99.90
21744;DHT22;11034;48.556;9.342;2022-11-15T11:54:29;14.00;99.90
21744;DHT22;11034;48.556;9.342;2022-11-15T11:57:04;14.10;99.90
21744;DHT22;11034;48.556;9.342;2022-11-15T11:59:39;14.10;99.90
21744;DHT22;11034;48.556;9.342;2022-11-15T12:02:15;14.10;99.90
21744;DHT22;11034;48.556;9.342;2022-11-15T12:04:49;14.10;99.90
21744;DHT22;11034;48.556;9.342;2022-11-15T12:07:23;14.20;99.90
21744;DHT22;11034;48.556;9.342;2022-11-15T12:09:56;14.20;99.90
21744;DHT22;11034;48.556;9.342;2022-11-15T12:12:31;14.10;99.90
21744;DHT22;11034;48.556;9.342;2022-11-15T12:15:04;14.20;99.90
21744;DHT22;11034;48.556;9.342;2022-11-15T12:17:40;14.10;99.90
21744;DHT22;11034;48.556;9.342;2022-11-15T12:20:15;14.00;99.90
21744;DHT22;11034;48.556;9.342;2022-11-15T12:22:46;13.80;99.90
21744;DHT22;11034;48.556;9.342;2022-11-15T12:25:19;13.80;99.90
21744;DHT22;11034;48.556;9.342;2022-11-15T12:27:53;13.70;99.90
21744;DHT22;11034;48.556;9.342;2022-11-15T12:30:23;13.60;99.90
21744;DHT22;11034;48.556;9.342;2022-11-15T12:32:54;13.50;99.90
21744;DHT22;11034;48.556;9.342;2022-11-15T12:35:27;13.50;99.90
21744;DHT22;11034;48.556;9.342;2022-11-15T12:37:56;13.50;99.90
21744;DHT22;11034;48.556;9.342;2022-11-15T12:40:34;13.60;99.90
21744;DHT22;11034;48.556;9.342;2022-11-15T12:46:05;13.70;99.90
21744;DHT22;11034;48.556;9.342;2022-11-15T12:48:58;13.70;99.90
21744;DHT22;11034;48.556;9.342;2022-11-15T12:54:53;13.70;99.90
21744;DHT22;11034;48.556;9.342;2022-11-15T12:57:40;13.70;99.90
21744;DHT22;11034;48.556;9.342;2022-11-15T13:00:36;13.70;99.90
21744;DHT22;11034;48.556;9.342;2022-11-15T13:03:27;13.90;99.90
21744;DHT22;11034;48.556;9.342;2022-11-15T13:06:07;13.90;99.90
21744;DHT22;11034;48.556;9.342;2022-11-15T13:08:45;14.00;99.90
21744;DHT22;11034;48.556;9.342;2022-11-15T13:11:43;14.00;99.90
21744;DHT22;11034;48.556;9.342;2022-11-15T13:17:34;14.00;99.90
21744;DHT22;11034;48.556;9.342;2022-11-15T13:20:25;14.00;99.90
21744;DHT22;11034;48.556;9.342;2022-11-15T13:23:01;13.90;99.90
21744;DHT22;11034;48.556;9.342;2022-11-15T13:25:54;13.90;99.90
21744;DHT22;11034;48.556;9.342;2022-11-15T13:28:31;13.90;99.90
21744;DHT22;11034;48.556;9.342;2022-11-15T13:31:01;13.90;99.90
21744;DHT22;11034;48.556;9.342;2022-11-15T13:33:34;13.90;99.90
21744;DHT22;11034;48.556;9.342;2022-11-15T13:36:06;13.90;99.90
21744;DHT22;11034;48.556;9.342;2022-11-15T13:38:36;13.90;99.90
21744;DHT22;11034;48.556;9.342;2022-11-15T13:41:16;13.90;99.90
21744;DHT22;11034;48.556;9.342;2022-11-15T13:43:45;13.90;99.90
21744;DHT22;11034;48.556;9.342;2022-11-15T13:46:16;14.00;99.90
21744;DHT22;11034;48.556;9.342;2022-11-15T13:48:48;14.00;99.90
21744;DHT22;11034;48.556;9.342;2022-11-15T13:51:20;14.10;99.90
21744;DHT22;11034;48.556;9.342;2022-11-15T13:53:51;14.10;99.90
21744;DHT22;11034;48.556;9.342;2022-11-15T13:56:20;14.00;99.90
21744;DHT22;11034;48.556;9.342;2022-11-15T13:58:49;14.00;99.90
21744;DHT22;11034;48.556;9.342;2022-11-15T14:01:18;13.90;99.90
21744;DHT22;11034;48.556;9.342;2022-11-15T14:03:52;13.90;99.90
21744;DHT22;11034;48.556;9.342;2022-11-15T14:06:22;13.80;99.90
21744;DHT22;11034;48.556;9.342;2022-11-15T14:09:26;13.70;99.90
21744;DHT22;11034;48.556;9.342;2022-11-15T14:11:57;13.50;99.90
21744;DHT22;11034;48.556;9.342;2022-11-15T14:14:26;13.50;99.90
21744;DHT22;11034;48.556;9.342;2022-11-15T14:16:55;13.40;99.90
21744;DHT22;11034;48.556;9.342;2022-11-15T14:19:39;13.30;99.90
21744;DHT22;11034;48.556;9.342;2022-11-15T14:22:14;13.20;99.90
21744;DHT22;11034;48.556;9.342;2022-11-15T14:24:44;13.20;99.90
21744;DHT22;11034;48.556;9.342;2022-11-15T14:27:20;13.20;99.90
21744;DHT22;11034;48.556;9.342;2022-11-15T14:29:49;13.20;99.90
21744;DHT22;11034;48.556;9.342;2022-11-15T14:32:18;13.10;99.90
21744;DHT22;11034;48.556;9.342;2022-11-15T14:34:49;13.10;99.90
21744;DHT22;11034;48.556;9.342;2022-11-15T14:37:23;13.10;99.90
21744;DHT22;11034;48.556;9.342;2022-11-15T14:39:52;13.10;99.90
21744;DHT22;11034;48.556;9.342;2022-11-15T14:42:22;13.20;99.90
21744;DHT22;11034;48.556;9.342;2022-11-15T14:44:51;13.20;99.90
21744;DHT22;11034;48.556;9.342;2022-11-15T14:47:19;13.10;99.90
21744;DHT22;11034;48.556;9.342;2022-11-15T14:49:49;13.00;99.90
21744;DHT22;11034;48.556;9.342;2022-11-15T14:52:25;12.90;99.90
21744;DHT22;11034;48.556;9.342;2022-11-15T14:54:59;12.80;99.90
21744;DHT22;11034;48.556;9.342;2022-11-15T14:57:28;12.80;99.90
21744;DHT22;11034;48.556;9.342;2022-11-15T14:59:56;12.70;99.90
21744;DHT22;11034;48.556;9.342;2022-11-15T15:02:25;12.60;99.90
21744;DHT22;11034;48.556;9.342;2022-11-15T15:04:55;12.60;99.90
21744;DHT22;11034;48.556;9.342;2022-11-15T15:07:27;12.60;99.90
21744;DHT22;11034;48.556;9.342;2022-11-15T15:09:55;12.60;99.90
21744;DHT22;11034;48.556;9.342;2022-11-15T15:12:44;12.70;99.90
21744;DHT22;11034;48.556;9.342;2022-11-15T15:15:14;12.70;99.90
21744;DHT22;11034;48.556;9.342;2022-11-15T15:17:42;12.70;99.90
21744;DHT22;11034;48.556;9.342;2022-11-15T15:20:12;12.80;99.90
21744;DHT22;11034;48.556;9.342;2022-11-15T15:22:40;12.70;99.90
21744;DHT22;11034;48.556;9.342;2022-11-15T15:25:20;12.70;99.90
21744;DHT22;11034;48.556;9.342;2022-11-15T15:27:49;12.60;99.90
21744;DHT22;11034;48.556;9.342;2022-11-15T15:30:17;12.50;99.90
21744;DHT22;11034;48.556;9.342;2022-11-15T15:32:45;12.50;99.90
21744;DHT22;11034;48.556;9.342;2022-11-15T15:35:16;12.40;99.90
21744;DHT22;11034;48.556;9.342;2022-11-15T15:37:45;12.40;99.90
21744;DHT22;11034;48.556;9.342;2022-11-15T15:40:16;12.30;99.90
21744;DHT22;11034;48.556;9.342;2022-11-15T15:42:44;12.40;99.90
21744;DHT22;11034;48.556;9.342;2022-11-15T15:45:12;12.30;99.90
21744;DHT22;11034;48.556;9.342;2022-11-15T15:47:41;12.30;99.90
21744;DHT22;11034;48.556;9.342;2022-11-15T15:50:20;12.20;99.90
21744;DHT22;11034;48.556;9.342;2022-11-15T15:52:49;12.20;99.90
21744;DHT22;11034;48.556;9.342;2022-11-15T15:55:17;12.10;99.90
21744;DHT22;11034;48.556;9.342;2022-11-15T15:57:45;12.10;99.90
21744;DHT22;11034;48.556;9.342;2022-11-15T16:00:14;12.00;99.90
21744;DHT22;11034;48.556;9.342;2022-11-15T16:02:42;11.90;99.90
21744;DHT22;11034;48.556;9.342;2022-11-15T16:05:11;11.80;99.90
21744;DHT22;11034;48.556;9.342;2022-11-15T16:07:41;11.60;99.90
21744;DHT22;11034;48.556;9.342;2022-11-15T16:10:18;11.50;99.90
21744;DHT22;11034;48.556;9.342;2022-11-15T16:12:46;11.40;99.90
21744;DHT22;11034;48.556;9.342;2022-11-15T16:15:15;11.40;99.90
21744;DHT22;11034;48.556;9.342;2022-11-15T16:17:47;11.30;99.90
21744;DHT22;11034;48.556;9.342;2022-11-15T16:20:32;11.30;99.90